Time;durP1;ratioP1;P1;durP2;ratioP2;P2;SDS_P1;SDS_P2;PMS_P1;PMS_P2;Temp;Humidity;BMP_temperature;BMP_pressure;BME280_temperature;BME280_humidity;BME280_pressure;Samples;Min_cycle;Max_cycle;Signal;HPM_P1;HPM_P2
2022/04/29 00:02:09;;;;;;;4.68;1.77;;;;;;;;;;5009930;28;20508;-80
2022/04/29 00:04:35;;;;;;;3.65;1.77;;;;;;;;;;5009922;28;20096;-81
2022/04/29 00:07:01;;;;;;;4.30;2.40;;;;;;;;;;5011531;28;20592;-81
2022/04/29 00:09:26;;;;;;;3.60;1.98;;;;;;;;;;5013626;28;20078;-80
2022/04/29 00:11:53;;;;;;;3.92;1.92;;;;;;;;;;5030229;28;20029;-80
2022/04/29 00:14:18;;;;;;;3.30;1.85;;;;;;;;;;5030138;28;20500;-80
2022/04/29 00:16:44;;;;;;;3.30;1.63;;;;;;;;;;4997365;28;20041;-80
2022/04/29 00:19:09;;;;;;;4.90;2.30;;;;;;;;;;5013391;28;20049;-80
2022/04/29 00:21:35;;;;;;;5.05;2.15;;;;;;;;;;5014194;28;20130;-80
2022/04/29 00:24:00;;;;;;;4.57;2.00;;;;;;;;;;5010018;28;20228;-80
2022/04/29 00:26:26;;;;;;;4.80;2.13;;;;;;;;;;4993491;28;20128;-80
2022/04/29 00:28:51;;;;;;;4.45;2.08;;;;;;;;;;4993521;28;20442;-80
2022/04/29 00:31:17;;;;;;;4.22;2.25;;;;;;;;;;4997538;28;20041;-81
2022/04/29 00:33:42;;;;;;;5.30;2.05;;;;;;;;;;5013030;28;20030;-80
2022/04/29 00:36:08;;;;;;;4.72;2.53;;;;;;;;;;5012899;28;20046;-80
2022/04/29 00:38:33;;;;;;;5.03;2.13;;;;;;;;;;5013049;28;20046;-80
2022/04/29 00:40:59;;;;;;;3.30;1.63;;;;;;;;;;4998400;28;20447;-80
2022/04/29 00:43:24;;;;;;;3.95;2.20;;;;;;;;;;4980571;28;20037;-80
2022/04/29 00:45:50;;;;;;;6.25;2.72;;;;;;;;;;4996503;28;20385;-80
2022/04/29 00:48:16;;;;;;;3.67;2.00;;;;;;;;;;4996282;28;20124;-80
2022/04/29 00:50:42;;;;;;;4.82;2.30;;;;;;;;;;4996565;28;20116;-80
2022/04/29 00:53:07;;;;;;;3.33;1.85;;;;;;;;;;4979936;28;20109;-80
2022/04/29 00:55:34;;;;;;;5.28;2.25;;;;;;;;;;4980166;28;20443;-81
2022/04/29 00:58:07;;;;;;;2.97;2.10;;;;;;;;;;4980518;28;20034;-80
2022/04/29 01:00:33;;;;;;;4.25;2.13;;;;;;;;;;4997396;28;20040;-81
2022/04/29 01:02:59;;;;;;;4.72;2.20;;;;;;;;;;4996075;28;20042;-81
2022/04/29 01:05:28;;;;;;;4.53;1.92;;;;;;;;;;5028792;28;20038;-81
2022/04/29 01:07:53;;;;;;;5.10;1.83;;;;;;;;;;5012394;28;20042;-80
2022/04/29 01:10:23;;;;;;;3.83;2.22;;;;;;;;;;4995985;28;20412;-80
2022/04/29 01:12:50;;;;;;;2.97;1.65;;;;;;;;;;5012939;28;20030;-81
2022/04/29 01:15:17;;;;;;;4.65;2.53;;;;;;;;;;5012628;28;20026;-80
2022/04/29 01:17:44;;;;;;;4.55;2.08;;;;;;;;;;5011766;28;20092;-81
2022/04/29 01:20:11;;;;;;;5.55;2.55;;;;;;;;;;5008441;28;20129;-80
2022/04/29 01:22:37;;;;;;;7.68;2.97;;;;;;;;;;5009036;28;20070;-81
2022/04/29 01:25:03;;;;;;;4.22;2.15;;;;;;;;;;5008976;28;20033;-81
2022/04/29 01:27:29;;;;;;;5.25;2.30;;;;;;;;;;4992586;28;20069;-80
2022/04/29 01:29:58;;;;;;;4.68;2.50;;;;;;;;;;4992599;28;20126;-80
2022/04/29 01:32:25;;;;;;;4.72;2.08;;;;;;;;;;5021747;28;20041;-81
2022/04/29 01:34:51;;;;;;;4.20;2.33;;;;;;;;;;5028609;28;20043;-81
2022/04/29 01:37:16;;;;;;;3.65;1.85;;;;;;;;;;5011668;28;20070;-80
2022/04/29 01:39:41;;;;;;;4.75;2.30;;;;;;;;;;5007765;28;20103;-80
2022/04/29 01:42:07;;;;;;;3.45;2.35;;;;;;;;;;4979076;28;20045;-80
2022/04/29 01:44:33;;;;;;;6.85;2.15;;;;;;;;;;4979860;28;20439;-81
2022/04/29 01:46:58;;;;;;;3.30;1.90;;;;;;;;;;4978931;28;20064;-81
2022/04/29 01:49:23;;;;;;;4.97;2.15;;;;;;;;;;4979197;28;20419;-80
2022/04/29 01:51:49;;;;;;;2.92;1.98;;;;;;;;;;4979332;28;20030;-80
2022/04/29 01:54:14;;;;;;;3.80;2.00;;;;;;;;;;4979106;28;20041;-80
2022/04/29 01:56:40;;;;;;;3.80;2.42;;;;;;;;;;4995346;28;20231;-80
2022/04/29 01:59:05;;;;;;;5.13;1.75;;;;;;;;;;4978992;28;20475;-80
2022/04/29 02:01:31;;;;;;;4.03;2.28;;;;;;;;;;4979133;28;20038;-80
2022/04/29 02:03:58;;;;;;;3.40;1.65;;;;;;;;;;5027881;28;20175;-80
2022/04/29 02:06:24;;;;;;;4.32;2.35;;;;;;;;;;4994880;28;20038;-80
2022/04/29 02:08:49;;;;;;;5.60;2.25;;;;;;;;;;5028394;28;20034;-80
2022/04/29 02:11:17;;;;;;;3.42;2.28;;;;;;;;;;5011668;28;20095;-81
2022/04/29 02:13:45;;;;;;;4.68;2.30;;;;;;;;;;5028180;28;20480;-80
2022/04/29 02:16:10;;;;;;;5.43;2.00;;;;;;;;;;5011325;28;20496;-80
2022/04/29 02:18:36;;;;;;;4.55;2.38;;;;;;;;;;5011132;28;20057;-80
2022/04/29 02:21:01;;;;;;;4.72;2.10;;;;;;;;;;5016879;28;20054;-80
2022/04/29 02:23:27;;;;;;;5.95;2.67;;;;;;;;;;4991711;28;20409;-81
2022/04/29 02:25:52;;;;;;;4.47;2.22;;;;;;;;;;4991272;28;20046;-80
2022/04/29 02:28:17;;;;;;;5.28;2.13;;;;;;;;;;5008163;28;20042;-80
2022/04/29 02:30:43;;;;;;;3.17;1.92;;;;;;;;;;5006783;28;20420;-80
2022/04/29 02:33:08;;;;;;;2.90;2.17;;;;;;;;;;5026632;28;20432;-80
2022/04/29 02:35:34;;;;;;;4.40;2.15;;;;;;;;;;5010635;28;20397;-80
2022/04/29 02:37:59;;;;;;;4.05;1.98;;;;;;;;;;5011128;28;20404;-80
2022/04/29 02:40:25;;;;;;;5.35;2.30;;;;;;;;;;5000936;28;20045;-80
2022/04/29 02:42:50;;;;;;;3.33;1.90;;;;;;;;;;4994390;28;20437;-80
2022/04/29 02:45:16;;;;;;;7.25;3.33;;;;;;;;;;4978153;28;20465;-81
2022/04/29 02:47:42;;;;;;;2.67;1.83;;;;;;;;;;4994458;28;20081;-79
2022/04/29 02:50:08;;;;;;;3.30;1.85;;;;;;;;;;4994660;28;20051;-81
2022/04/29 02:52:33;;;;;;;4.32;2.05;;;;;;;;;;5011241;28;20038;-80
2022/04/29 02:54:59;;;;;;;4.15;2.33;;;;;;;;;;4994381;28;20111;-81
2022/04/29 02:57:24;;;;;;;5.90;2.28;;;;;;;;;;4978141;28;20034;-81
2022/04/29 02:59:50;;;;;;;3.60;2.20;;;;;;;;;;4978085;28;20451;-80
2022/04/29 03:02:15;;;;;;;5.18;2.38;;;;;;;;;;4978067;28;20489;-80
2022/04/29 03:04:40;;;;;;;3.70;1.90;;;;;;;;;;5010467;28;20483;-81
2022/04/29 03:07:06;;;;;;;5.10;2.30;;;;;;;;;;5010463;28;20397;-80
2022/04/29 03:09:31;;;;;;;4.95;2.22;;;;;;;;;;5027055;28;20061;-80
2022/04/29 03:11:57;;;;;;;4.43;2.38;;;;;;;;;;5010350;28;20404;-80
2022/04/29 03:14:22;;;;;;;3.70;2.40;;;;;;;;;;5026537;28;20405;-80
2022/04/29 03:16:48;;;;;;;3.55;1.90;;;;;;;;;;5026828;28;20037;-81
2022/04/29 03:19:13;;;;;;;4.00;2.17;;;;;;;;;;5026756;28;20049;-80
2022/04/29 03:21:38;;;;;;;3.08;2.28;;;;;;;;;;5013758;28;20466;-80
2022/04/29 03:24:04;;;;;;;4.40;2.40;;;;;;;;;;4981271;28;20463;-80
2022/04/29 03:26:30;;;;;;;3.88;2.10;;;;;;;;;;4997405;28;20032;-80
2022/04/29 03:28:56;;;;;;;5.47;2.40;;;;;;;;;;4997507;28;20042;-80
2022/04/29 03:31:22;;;;;;;3.38;2.25;;;;;;;;;;5009228;28;20108;-80
2022/04/29 03:33:47;;;;;;;3.83;1.95;;;;;;;;;;4994240;28;20045;-81
2022/04/29 03:36:14;;;;;;;2.95;2.38;;;;;;;;;;5026636;28;20034;-80
2022/04/29 03:38:40;;;;;;;6.05;2.25;;;;;;;;;;5027109;28;20038;-80
2022/04/29 03:41:05;;;;;;;3.55;2.08;;;;;;;;;;4994749;28;20169;-81
2022/04/29 03:43:31;;;;;;;4.28;2.55;;;;;;;;;;5014359;28;20034;-80
2022/04/29 03:45:56;;;;;;;4.15;1.92;;;;;;;;;;4998079;28;20046;-80
2022/04/29 03:48:22;;;;;;;5.45;2.40;;;;;;;;;;4997425;28;20046;-80
2022/04/29 03:50:48;;;;;;;3.90;2.95;;;;;;;;;;4997808;28;20042;-80
2022/04/29 03:53:13;;;;;;;3.20;1.77;;;;;;;;;;4998052;28;20088;-80
2022/04/29 03:55:38;;;;;;;4.82;2.33;;;;;;;;;;4997227;28;20048;-81
2022/04/29 03:58:04;;;;;;;3.40;2.00;;;;;;;;;;5013838;28;20400;-80
2022/04/29 04:00:32;;;;;;;2.90;2.03;;;;;;;;;;5014369;28;20092;-80
2022/04/29 04:02:58;;;;;;;3.40;2.25;;;;;;;;;;4983693;28;20034;-80
2022/04/29 04:05:24;;;;;;;5.65;2.60;;;;;;;;;;5011572;28;20030;-80
2022/04/29 04:07:49;;;;;;;2.97;2.08;;;;;;;;;;5029736;28;20404;-80
2022/04/29 04:10:15;;;;;;;3.85;2.58;;;;;;;;;;5013582;28;20500;-80
2022/04/29 04:12:40;;;;;;;5.50;2.80;;;;;;;;;;5013718;28;20030;-80
2022/04/29 04:15:06;;;;;;;4.05;2.50;;;;;;;;;;5013139;28;20042;-81
2022/04/29 04:17:32;;;;;;;3.45;1.90;;;;;;;;;;5013195;28;20166;-79
2022/04/29 04:19:57;;;;;;;4.47;2.72;;;;;;;;;;5031754;28;20524;-80
2022/04/29 04:22:24;;;;;;;4.20;2.38;;;;;;;;;;5016556;28;20042;-79
2022/04/29 04:24:49;;;;;;;5.20;2.60;;;;;;;;;;4999928;28;20041;-79
2022/04/29 04:27:15;;;;;;;4.78;2.38;;;;;;;;;;5016891;28;20040;-79
2022/04/29 04:29:40;;;;;;;4.00;2.38;;;;;;;;;;5000318;28;20041;-80
2022/04/29 04:32:08;;;;;;;4.20;2.15;;;;;;;;;;4989742;28;20034;-80
2022/04/29 04:34:53;;;;;;;3.22;2.00;;;;;;;;;;4997100;28;20034;-80
2022/04/29 04:37:22;;;;;;;3.58;2.08;;;;;;;;;;5031825;28;20509;-81
2022/04/29 04:39:48;;;;;;;3.63;2.03;;;;;;;;;;5008561;28;20040;-79
2022/04/29 04:42:14;;;;;;;3.50;2.40;;;;;;;;;;4980643;28;20038;-79
2022/04/29 04:44:40;;;;;;;4.57;2.20;;;;;;;;;;4980904;28;20038;-80
2022/04/29 04:47:07;;;;;;;3.55;2.33;;;;;;;;;;4980328;28;20120;-80
2022/04/29 04:49:33;;;;;;;3.70;1.95;;;;;;;;;;4996632;28;20038;-79
2022/04/29 04:52:00;;;;;;;4.05;2.58;;;;;;;;;;4997207;28;20050;-79
2022/04/29 04:54:25;;;;;;;4.13;2.03;;;;;;;;;;4979089;28;20030;-79
2022/04/29 04:56:51;;;;;;;4.15;2.08;;;;;;;;;;4996232;28;20048;-79
2022/04/29 04:59:17;;;;;;;5.15;2.28;;;;;;;;;;4980356;28;20046;-80
2022/04/29 05:01:42;;;;;;;5.53;2.00;;;;;;;;;;4980132;28;20057;-79
2022/04/29 05:04:08;;;;;;;3.72;2.30;;;;;;;;;;4996133;28;20034;-79
2022/04/29 05:06:36;;;;;;;3.25;2.00;;;;;;;;;;5009359;28;20038;-80
2022/04/29 05:09:03;;;;;;;4.60;2.15;;;;;;;;;;4996034;28;20030;-79
2022/04/29 05:11:28;;;;;;;4.63;2.42;;;;;;;;;;4979455;28;20038;-79
2022/04/29 05:13:53;;;;;;;3.50;2.08;;;;;;;;;;4976506;28;20133;-79
2022/04/29 05:16:19;;;;;;;24.48;4.43;;;;;;;;;;5007966;28;20404;-79
2022/04/29 05:18:44;;;;;;;9.98;2.63;;;;;;;;;;5005794;28;20038;-79
2022/04/29 05:21:10;;;;;;;7.28;2.58;;;;;;;;;;5018893;28;20526;-79
2022/04/29 05:23:36;;;;;;;7.10;2.58;;;;;;;;;;5026465;28;20374;-78
2022/04/29 05:26:02;;;;;;;5.05;2.40;;;;;;;;;;5028771;28;20046;-79
2022/04/29 05:28:28;;;;;;;6.47;2.28;;;;;;;;;;5023892;28;20327;-78
2022/04/29 05:31:06;;;;;;;6.90;2.25;;;;;;;;;;4989926;28;20084;-80
2022/04/29 05:33:32;;;;;;;8.07;2.70;;;;;;;;;;5013288;28;20034;-79
2022/04/29 05:35:58;;;;;;;4.82;2.63;;;;;;;;;;4995580;28;20052;-78
2022/04/29 05:38:24;;;;;;;4.78;3.28;;;;;;;;;;4979578;28;20550;-78
2022/04/29 05:43:33;;;;;;;7.63;3.00;;;;;;;;;;4998180;28;20054;-80
2022/04/29 05:45:59;;;;;;;6.03;3.05;;;;;;;;;;4995224;28;20496;-80
2022/04/29 05:48:24;;;;;;;39.38;7.18;;;;;;;;;;4979111;28;20046;-79
2022/04/29 05:50:50;;;;;;;24.73;17.52;;;;;;;;;;4979086;28;20057;-79
2022/04/29 05:53:15;;;;;;;146.45;130.35;;;;;;;;;;5011302;28;20022;-79
2022/04/29 05:55:42;;;;;;;111.30;94.00;;;;;;;;;;4995153;28;20123;-79
2022/04/29 05:58:07;;;;;;;110.78;99.05;;;;;;;;;;5011414;28;20069;-79
2022/04/29 06:00:33;;;;;;;98.85;88.05;;;;;;;;;;5011869;28;20080;-78
2022/04/29 06:02:58;;;;;;;100.07;89.10;;;;;;;;;;5011299;28;20412;-78
2022/04/29 06:05:24;;;;;;;92.90;82.28;;;;;;;;;;5020075;28;20038;-78
2022/04/29 06:07:50;;;;;;;90.28;80.28;;;;;;;;;;4975474;28;20092;-79
2022/04/29 06:10:15;;;;;;;87.30;72.50;;;;;;;;;;4999511;28;20029;-78
2022/04/29 06:12:41;;;;;;;86.07;76.82;;;;;;;;;;4994703;28;20045;-78
2022/04/29 06:15:12;;;;;;;68.68;59.20;;;;;;;;;;5011143;28;20428;-78
2022/04/29 06:17:37;;;;;;;75.13;62.05;;;;;;;;;;5011311;28;20041;-80
2022/04/29 06:20:03;;;;;;;72.68;58.58;;;;;;;;;;4981344;28;20046;-81
2022/04/29 06:22:28;;;;;;;62.92;52.65;;;;;;;;;;4998122;28;20189;-80
2022/04/29 06:24:54;;;;;;;67.13;54.35;;;;;;;;;;4999230;28;20412;-80
2022/04/29 06:27:19;;;;;;;71.60;58.03;;;;;;;;;;4997925;28;20034;-80
2022/04/29 06:29:44;;;;;;;58.58;50.47;;;;;;;;;;5014355;28;20520;-81
2022/04/29 06:32:10;;;;;;;61.75;51.60;;;;;;;;;;4987115;28;20022;-80
2022/04/29 06:34:36;;;;;;;48.85;43.35;;;;;;;;;;5005738;28;20479;-80
2022/04/29 06:37:01;;;;;;;51.05;41.95;;;;;;;;;;4976850;28;20464;-81
2022/04/29 06:39:27;;;;;;;46.90;40.60;;;;;;;;;;4999705;28;20054;-80
2022/04/29 06:41:52;;;;;;;49.08;43.60;;;;;;;;;;4993964;28;20116;-81
2022/04/29 06:44:21;;;;;;;48.78;38.33;;;;;;;;;;4994432;28;20069;-81
2022/04/29 06:46:50;;;;;;;45.85;37.97;;;;;;;;;;4977133;28;20081;-81
2022/04/29 06:49:16;;;;;;;41.88;36.70;;;;;;;;;;4995381;28;20050;-80
2022/04/29 06:51:41;;;;;;;39.13;34.75;;;;;;;;;;4978395;28;20077;-80
2022/04/29 06:54:07;;;;;;;35.65;31.80;;;;;;;;;;5010493;28;20069;-81
2022/04/29 06:56:32;;;;;;;34.35;29.67;;;;;;;;;;4977985;28;20062;-79
2022/04/29 06:58:58;;;;;;;37.65;29.08;;;;;;;;;;4994247;28;20038;-80
2022/04/29 07:01:23;;;;;;;32.13;27.77;;;;;;;;;;4978192;28;20111;-82
2022/04/29 07:03:49;;;;;;;31.17;26.30;;;;;;;;;;5010753;28;20030;-79
2022/04/29 07:06:14;;;;;;;36.00;26.38;;;;;;;;;;5009967;28;20401;-78
2022/04/29 07:08:40;;;;;;;35.92;25.05;;;;;;;;;;5010888;28;20392;-78
2022/04/29 07:11:05;;;;;;;26.42;21.90;;;;;;;;;;4994052;28;20052;-79
2022/04/29 07:13:31;;;;;;;33.58;23.95;;;;;;;;;;4994280;28;20428;-79
2022/04/29 07:15:57;;;;;;;32.83;21.85;;;;;;;;;;4993028;28;20124;-79
2022/04/29 07:18:22;;;;;;;28.27;22.63;;;;;;;;;;5026636;28;20416;-79
2022/04/29 07:20:48;;;;;;;23.85;19.98;;;;;;;;;;5017518;28;20042;-79
2022/04/29 07:23:13;;;;;;;24.83;18.50;;;;;;;;;;5006478;28;20572;-79
2022/04/29 07:25:38;;;;;;;24.63;17.92;;;;;;;;;;4971775;28;20514;-80
2022/04/29 07:28:04;;;;;;;21.65;17.30;;;;;;;;;;4988036;28;20459;-79
2022/04/29 07:30:29;;;;;;;26.08;18.40;;;;;;;;;;4989283;28;20030;-79
2022/04/29 07:32:55;;;;;;;23.05;17.52;;;;;;;;;;5004360;28;20378;-80
2022/04/29 07:43:33;;;;;;;16.23;14.10;;;;;;;;;;4996598;28;20061;-79
2022/04/29 07:45:59;;;;;;;17.48;12.60;;;;;;;;;;4977471;28;20081;-80
2022/04/29 07:48:24;;;;;;;17.83;13.32;;;;;;;;;;4977242;28;20042;-79
2022/04/29 07:50:50;;;;;;;16.63;12.70;;;;;;;;;;4977641;28;20045;-79
2022/04/29 07:53:15;;;;;;;16.23;11.38;;;;;;;;;;4977454;28;20034;-79
2022/04/29 07:55:41;;;;;;;17.02;11.52;;;;;;;;;;5009727;28;20143;-80
2022/04/29 07:58:07;;;;;;;14.73;10.55;;;;;;;;;;4993993;28;20042;-79
2022/04/29 08:00:32;;;;;;;15.23;11.25;;;;;;;;;;4994346;28;20042;-79
2022/04/29 08:03:01;;;;;;;17.35;11.23;;;;;;;;;;4993417;28;20408;-79
2022/04/29 08:05:29;;;;;;;14.75;9.82;;;;;;;;;;5026533;28;20038;-79
2022/04/29 08:07:59;;;;;;;15.25;10.35;;;;;;;;;;5026711;28;20041;-81
2022/04/29 08:10:25;;;;;;;18.02;11.00;;;;;;;;;;4993295;28;20030;-79
2022/04/29 08:12:50;;;;;;;13.65;9.55;;;;;;;;;;5010596;28;20050;-79
2022/04/29 08:15:16;;;;;;;15.00;8.63;;;;;;;;;;5008802;28;20109;-79
2022/04/29 08:17:41;;;;;;;13.25;7.80;;;;;;;;;;4991919;28;20124;-79
2022/04/29 08:20:08;;;;;;;12.25;8.77;;;;;;;;;;4992197;28;20124;-80
2022/04/29 08:22:33;;;;;;;9.82;7.63;;;;;;;;;;4992298;28;20030;-80
2022/04/29 08:24:58;;;;;;;10.63;7.70;;;;;;;;;;5007526;28;20037;-80
2022/04/29 08:27:24;;;;;;;9.63;7.40;;;;;;;;;;4991859;28;20037;-79
2022/04/29 08:29:49;;;;;;;10.80;7.93;;;;;;;;;;4995057;28;20037;-79
2022/04/29 08:32:15;;;;;;;9.63;6.50;;;;;;;;;;5007840;28;20046;-79
2022/04/29 08:34:42;;;;;;;9.73;7.00;;;;;;;;;;4997310;28;20518;-79
2022/04/29 08:37:08;;;;;;;9.48;7.15;;;;;;;;;;4979264;28;20069;-79
2022/04/29 08:39:33;;;;;;;9.10;6.55;;;;;;;;;;4995883;28;20041;-79
2022/04/29 08:42:01;;;;;;;10.68;7.25;;;;;;;;;;5012026;28;20059;-79
2022/04/29 08:44:29;;;;;;;8.25;6.45;;;;;;;;;;4997343;28;20033;-80
2022/04/29 08:46:55;;;;;;;9.65;5.88;;;;;;;;;;4963863;28;20037;-80
2022/04/29 08:49:21;;;;;;;11.27;6.38;;;;;;;;;;4980607;28;20042;-80
2022/04/29 08:51:46;;;;;;;12.00;5.85;;;;;;;;;;4996766;28;20073;-81
2022/04/29 08:58:36;;;;;;;10.27;5.53;;;;;;;;;;4980475;28;20060;-80
2022/04/29 08:59:41;;;;;;;9.43;6.15;;;;;;;;;;4999074;28;20034;-80
2022/04/29 09:02:09;;;;;;;9.30;5.20;;;;;;;;;;4979733;28;20060;-80
2022/04/29 09:04:36;;;;;;;10.15;5.15;;;;;;;;;;5004448;28;20113;-80
2022/04/29 09:07:01;;;;;;;9.52;5.22;;;;;;;;;;5012244;28;20077;-80
2022/04/29 09:09:27;;;;;;;8.48;5.15;;;;;;;;;;4996304;28;20403;-80
2022/04/29 09:12:13;;;;;;;8.20;5.43;;;;;;;;;;5012449;28;20041;-80
2022/04/29 09:14:38;;;;;;;7.10;5.35;;;;;;;;;;5028969;28;20092;-80
2022/04/29 09:17:03;;;;;;;9.80;6.28;;;;;;;;;;5023048;28;20045;-80
2022/04/29 09:19:33;;;;;;;8.10;4.75;;;;;;;;;;5029146;28;20374;-81
2022/04/29 09:22:07;;;;;;;7.78;5.65;;;;;;;;;;5014656;28;20041;-80
2022/04/29 09:24:32;;;;;;;10.45;5.93;;;;;;;;;;5015818;28;20040;-80
2022/04/29 09:27:02;;;;;;;9.07;6.30;;;;;;;;;;5015360;28;20034;-80
2022/04/29 09:29:30;;;;;;;12.43;8.25;;;;;;;;;;4999525;28;20033;-80
2022/04/29 09:32:00;;;;;;;14.07;8.57;;;;;;;;;;5006548;28;20033;-80
2022/04/29 09:34:43;;;;;;;12.93;8.98;;;;;;;;;;5028820;28;20041;-80
2022/04/29 09:37:16;;;;;;;17.92;10.05;;;;;;;;;;5012960;28;20050;-80
2022/04/29 09:40:02;;;;;;;14.13;10.32;;;;;;;;;;4991246;28;20045;-80
2022/04/29 09:42:48;;;;;;;17.20;12.50;;;;;;;;;;4995872;28;20042;-80
2022/04/29 09:45:14;;;;;;;21.90;16.20;;;;;;;;;;5011489;28;20050;-80
2022/04/29 09:47:40;;;;;;;24.10;15.90;;;;;;;;;;4995651;28;20424;-80
2022/04/29 09:50:06;;;;;;;23.58;16.38;;;;;;;;;;4995463;28;20110;-80
2022/04/29 09:52:31;;;;;;;27.25;19.30;;;;;;;;;;4979642;28;20121;-80
2022/04/29 09:55:17;;;;;;;27.25;19.98;;;;;;;;;;4995386;28;20038;-80
2022/04/29 09:57:58;;;;;;;28.02;19.75;;;;;;;;;;4963874;28;20073;-80
2022/04/29 10:00:24;;;;;;;24.45;18.15;;;;;;;;;;4995877;28;20037;-80
2022/04/29 10:02:49;;;;;;;26.60;19.58;;;;;;;;;;4963231;28;20045;-80
2022/04/29 10:05:16;;;;;;;27.88;20.17;;;;;;;;;;5008034;28;20031;-80
2022/04/29 10:07:41;;;;;;;26.75;18.55;;;;;;;;;;4991692;28;20027;-81
2022/04/29 10:10:07;;;;;;;27.05;18.98;;;;;;;;;;5008169;28;20026;-81
2022/04/29 10:12:33;;;;;;;26.80;19.15;;;;;;;;;;5028090;28;20030;-81
2022/04/29 10:15:00;;;;;;;23.75;18.80;;;;;;;;;;5010924;28;20056;-80
2022/04/29 10:23:10;;;;;;;23.60;16.50;;;;;;;;;;5030745;28;20033;-81
2022/04/29 10:25:45;;;;;;;23.98;16.48;;;;;;;;;;5014509;28;20025;-81
2022/04/29 10:28:19;;;;;;;26.67;16.48;;;;;;;;;;5014204;28;20455;-81
2022/04/29 10:30:44;;;;;;;23.40;16.13;;;;;;;;;;5014781;28;20112;-81
2022/04/29 10:33:11;;;;;;;22.35;16.38;;;;;;;;;;4995597;28;20055;-81
2022/04/29 10:35:39;;;;;;;21.83;16.60;;;;;;;;;;5010992;28;20099;-80
2022/04/29 10:38:20;;;;;;;22.75;16.77;;;;;;;;;;5010787;28;20029;-81
2022/04/29 10:40:48;;;;;;;20.15;15.38;;;;;;;;;;5010577;28;20042;-80
2022/04/29 10:43:14;;;;;;;20.35;13.35;;;;;;;;;;4993898;28;20029;-80
2022/04/29 10:46:14;;;;;;;20.13;14.05;;;;;;;;;;4978936;28;20046;-80
2022/04/29 10:48:40;;;;;;;20.08;14.20;;;;;;;;;;5011299;28;20042;-80
2022/04/29 10:51:11;;;;;;;18.98;13.77;;;;;;;;;;4961185;28;20042;-79
2022/04/29 10:53:38;;;;;;;19.35;13.48;;;;;;;;;;5011256;28;20105;-80
2022/04/29 10:56:28;;;;;;;18.73;13.00;;;;;;;;;;5010810;28;20042;-80
2022/04/29 10:59:15;;;;;;;18.70;12.40;;;;;;;;;;5010689;28;20030;-81
2022/04/29 11:02:06;;;;;;;16.30;11.77;;;;;;;;;;5010467;28;20034;-79
2022/04/29 11:04:32;;;;;;;17.85;10.77;;;;;;;;;;5026950;28;20042;-80
2022/04/29 11:06:57;;;;;;;17.65;12.80;;;;;;;;;;5010263;28;20492;-80
2022/04/29 11:09:44;;;;;;;15.98;10.68;;;;;;;;;;5010710;28;20030;-80
2022/04/29 11:12:27;;;;;;;17.25;12.50;;;;;;;;;;5026891;28;20050;-80
2022/04/29 11:15:16;;;;;;;20.08;12.30;;;;;;;;;;4996566;28;20503;-81
2022/04/29 11:17:42;;;;;;;24.55;11.57;;;;;;;;;;5010653;28;20041;-80
2022/04/29 11:20:24;;;;;;;16.20;10.57;;;;;;;;;;5013884;28;20034;-80
2022/04/29 11:25:54;;;;;;;15.65;10.45;;;;;;;;;;5012405;28;20041;-81
2022/04/29 11:28:21;;;;;;;;;;;;;;;;;;5008900;28;20046;-81
2022/04/29 11:30:47;;;;;;;17.05;9.93;;;;;;;;;;5010653;28;20372;-80
2022/04/29 11:33:12;;;;;;;11.57;9.13;;;;;;;;;;4990793;28;20038;-80
2022/04/29 11:35:38;;;;;;;14.13;9.07;;;;;;;;;;4990765;28;20045;-80
2022/04/29 11:38:03;;;;;;;11.70;9.18;;;;;;;;;;5006970;28;20109;-80
2022/04/29 11:40:29;;;;;;;12.75;9.00;;;;;;;;;;5017043;28;20048;-80
2022/04/29 11:42:54;;;;;;;12.40;8.48;;;;;;;;;;5006825;28;20038;-80
2022/04/29 11:45:22;;;;;;;13.10;8.60;;;;;;;;;;5007230;28;20409;-80
2022/04/29 11:47:47;;;;;;;14.18;8.63;;;;;;;;;;5007096;28;20078;-81
2022/04/29 11:50:12;;;;;;;14.15;8.45;;;;;;;;;;4990833;28;20554;-81
2022/04/29 11:52:39;;;;;;;15.23;8.27;;;;;;;;;;5006815;28;20547;-80
2022/04/29 11:55:12;;;;;;;12.02;7.60;;;;;;;;;;4990352;28;20042;-81
2022/04/29 11:57:45;;;;;;;12.52;8.10;;;;;;;;;;5007123;28;20034;-80
2022/04/29 12:00:34;;;;;;;12.18;7.40;;;;;;;;;;5007344;28;20042;-82
2022/04/29 12:03:04;;;;;;;11.13;7.70;;;;;;;;;;4995107;28;20041;-82
2022/04/29 12:05:29;;;;;;;11.45;7.13;;;;;;;;;;5013398;28;20420;-81
2022/04/29 12:07:59;;;;;;;11.00;6.60;;;;;;;;;;4997522;28;20034;-81
2022/04/29 12:10:28;;;;;;;10.55;7.20;;;;;;;;;;5013106;28;20129;-81
2022/04/29 12:12:54;;;;;;;9.32;6.47;;;;;;;;;;4994473;28;20031;-81
2022/04/29 12:15:20;;;;;;;9.75;6.95;;;;;;;;;;5026831;28;20045;-80
2022/04/29 12:17:47;;;;;;;14.77;7.60;;;;;;;;;;4993943;28;20135;-80
2022/04/29 12:20:17;;;;;;;10.60;5.65;;;;;;;;;;5000954;28;20037;-80
2022/04/29 12:22:43;;;;;;;9.90;5.68;;;;;;;;;;5000541;28;20049;-81
2022/04/29 12:25:29;;;;;;;11.48;6.30;;;;;;;;;;5032638;28;20037;-81
2022/04/29 12:28:14;;;;;;;11.00;5.88;;;;;;;;;;5001060;28;20038;-81
2022/04/29 12:36:14;;;;;;;9.35;5.93;;;;;;;;;;5007541;28;20440;-81
2022/04/29 12:38:41;;;;;;;9.25;6.20;;;;;;;;;;4993608;28;20034;-81
2022/04/29 12:41:23;;;;;;;9.15;5.72;;;;;;;;;;5025427;28;20523;-80
2022/04/29 12:43:48;;;;;;;10.95;5.63;;;;;;;;;;4991859;28;20023;-81
2022/04/29 12:46:18;;;;;;;7.97;5.53;;;;;;;;;;4993579;28;20038;-80
2022/04/29 12:48:51;;;;;;;8.50;5.15;;;;;;;;;;4976441;28;20073;-80
2022/04/29 12:51:28;;;;;;;8.48;5.50;;;;;;;;;;5009492;28;20038;-80
2022/04/29 12:53:54;;;;;;;6.18;4.90;;;;;;;;;;5026278;28;20038;-80
2022/04/29 12:56:24;;;;;;;11.48;5.05;;;;;;;;;;5009489;28;20405;-81
2022/04/29 12:58:49;;;;;;;8.93;5.38;;;;;;;;;;4977271;28;20118;-80
2022/04/29 13:01:15;;;;;;;8.60;5.68;;;;;;;;;;5009761;28;20555;-81
2022/04/29 13:03:41;;;;;;;8.75;5.85;;;;;;;;;;5045424;28;20030;-80
2022/04/29 13:06:08;;;;;;;8.73;4.85;;;;;;;;;;5012275;28;20038;-80
2022/04/29 13:08:33;;;;;;;7.38;4.50;;;;;;;;;;5012429;28;20072;-80
2022/04/29 13:10:59;;;;;;;9.38;5.70;;;;;;;;;;5012229;28;20081;-81
2022/04/29 13:13:26;;;;;;;6.38;4.53;;;;;;;;;;5028842;28;20552;-80
2022/04/29 13:15:51;;;;;;;6.10;4.15;;;;;;;;;;5011942;28;20039;-80
2022/04/29 13:18:18;;;;;;;7.10;4.10;;;;;;;;;;4997168;28;20062;-82
2022/04/29 13:20:43;;;;;;;7.13;4.63;;;;;;;;;;4996418;28;20052;-81
2022/04/29 13:23:10;;;;;;;8.05;4.57;;;;;;;;;;5011860;28;20026;-81
2022/04/29 13:25:36;;;;;;;6.88;4.10;;;;;;;;;;5012348;28;20044;-80
2022/04/29 13:28:03;;;;;;;6.45;4.35;;;;;;;;;;5012779;28;20437;-80
2022/04/29 13:30:28;;;;;;;6.47;4.93;;;;;;;;;;5015153;28;20092;-80
2022/04/29 13:32:54;;;;;;;8.38;4.80;;;;;;;;;;5009397;28;20498;-80
2022/04/29 13:35:19;;;;;;;7.20;4.07;;;;;;;;;;5012111;28;20064;-80
2022/04/29 13:37:45;;;;;;;5.95;3.97;;;;;;;;;;5018267;28;20030;-80
2022/04/29 13:40:11;;;;;;;11.55;4.63;;;;;;;;;;4979004;28;20045;-80
2022/04/29 13:42:36;;;;;;;8.85;4.05;;;;;;;;;;4979549;28;20033;-80
2022/04/29 13:45:07;;;;;;;5.88;3.78;;;;;;;;;;4977736;28;20132;-80
2022/04/29 13:47:33;;;;;;;7.10;3.72;;;;;;;;;;4996162;28;20072;-80
2022/04/29 13:49:59;;;;;;;10.07;4.13;;;;;;;;;;4995595;28;20042;-80
2022/04/29 13:55:12;;;;;;;7.93;3.67;;;;;;;;;;4997867;28;20034;-80
2022/04/29 13:57:38;;;;;;;8.35;3.97;;;;;;;;;;5011652;28;20040;-80
2022/04/29 14:00:06;;;;;;;5.60;3.00;;;;;;;;;;4995679;28;20042;-80
2022/04/29 14:02:32;;;;;;;6.78;3.45;;;;;;;;;;4995147;28;20037;-80
2022/04/29 14:04:58;;;;;;;6.60;3.95;;;;;;;;;;5008002;28;20081;-80
2022/04/29 14:07:24;;;;;;;4.82;3.45;;;;;;;;;;4975635;28;20052;-81
2022/04/29 14:09:49;;;;;;;4.55;3.22;;;;;;;;;;5008181;28;20541;-80
2022/04/29 14:12:15;;;;;;;6.35;3.33;;;;;;;;;;4993938;28;20030;-81
2022/04/29 14:14:41;;;;;;;5.85;3.53;;;;;;;;;;4994623;28;20481;-80
2022/04/29 14:17:07;;;;;;;7.70;3.35;;;;;;;;;;5009870;28;20109;-80
2022/04/29 14:19:33;;;;;;;7.28;3.35;;;;;;;;;;5009535;28;20107;-80
2022/04/29 14:22:00;;;;;;;6.65;3.50;;;;;;;;;;5009016;28;20068;-80
2022/04/29 14:24:26;;;;;;;5.30;2.83;;;;;;;;;;4990983;28;20031;-80
2022/04/29 14:26:51;;;;;;;5.60;3.03;;;;;;;;;;5007607;28;20030;-80
2022/04/29 14:29:17;;;;;;;4.53;2.70;;;;;;;;;;5008108;28;20042;-80
2022/04/29 14:31:42;;;;;;;6.70;3.63;;;;;;;;;;5015153;28;20041;-81
2022/04/29 14:34:08;;;;;;;4.15;2.78;;;;;;;;;;5011143;28;20503;-80
2022/04/29 14:36:33;;;;;;;6.40;3.15;;;;;;;;;;5010648;28;20378;-80
2022/04/29 14:38:59;;;;;;;5.53;3.00;;;;;;;;;;5011120;28;20049;-81
2022/04/29 14:41:25;;;;;;;4.35;2.70;;;;;;;;;;4978785;28;20038;-80
2022/04/29 14:43:50;;;;;;;5.07;2.78;;;;;;;;;;5011112;28;20034;-80
2022/04/29 14:46:17;;;;;;;5.25;2.90;;;;;;;;;;4978459;28;20120;-80
2022/04/29 14:48:43;;;;;;;5.72;2.80;;;;;;;;;;4994253;28;20050;-81
2022/04/29 14:51:09;;;;;;;4.30;2.63;;;;;;;;;;4994952;28;20088;-80
2022/04/29 14:53:37;;;;;;;6.68;2.97;;;;;;;;;;5011235;28;20545;-80
2022/04/29 14:56:04;;;;;;;4.50;2.90;;;;;;;;;;4979105;28;20091;-80
2022/04/29 14:58:30;;;;;;;5.38;2.63;;;;;;;;;;4978378;28;20038;-80
2022/04/29 15:00:55;;;;;;;4.75;2.70;;;;;;;;;;4978329;28;20033;-80
2022/04/29 15:03:21;;;;;;;5.80;2.40;;;;;;;;;;4993855;28;20075;-81
2022/04/29 15:05:46;;;;;;;5.07;3.03;;;;;;;;;;5027008;28;20033;-80
2022/04/29 15:08:12;;;;;;;4.85;2.65;;;;;;;;;;5010682;28;20370;-80